createdAt,value
2023-05-08T00:01:07.569Z,18.77
2023-05-08T00:03:35.894Z,16.83
2023-05-08T00:06:05.641Z,17.80
2023-05-08T00:08:35.130Z,18.97
2023-05-08T00:11:03.327Z,16.73
2023-05-08T00:13:31.515Z,16.03
2023-05-08T00:15:59.942Z,14.37
2023-05-08T00:18:28.135Z,15.27
2023-05-08T00:20:56.298Z,14.43
2023-05-08T00:23:24.460Z,17.37
2023-05-08T00:25:53.994Z,14.87
2023-05-08T00:28:22.722Z,19.40
2023-05-08T00:30:50.945Z,13.70
2023-05-08T00:33:19.134Z,20.23
2023-05-08T00:35:47.312Z,15.93
2023-05-08T00:38:15.623Z,19.70
2023-05-08T00:40:43.948Z,16.03
2023-05-08T00:43:13.449Z,16.30
2023-05-08T00:45:42.133Z,19.23
2023-05-08T00:48:10.355Z,16.43
2023-05-08T00:50:38.551Z,18.20
2023-05-08T00:53:06.909Z,15.97
2023-05-08T00:55:35.176Z,16.80
2023-05-08T00:58:03.348Z,18.20
2023-05-08T01:00:33.299Z,15.27
2023-05-08T01:03:02.316Z,17.80
2023-05-08T01:05:30.694Z,14.57
2023-05-08T01:07:58.869Z,15.10
2023-05-08T01:10:30.953Z,13.93
2023-05-08T01:13:07.057Z,17.47
2023-05-08T01:15:40.403Z,17.90
2023-05-08T01:18:13.165Z,16.10
2023-05-08T01:20:44.804Z,14.97
2023-05-08T01:23:31.915Z,15.77
2023-05-08T01:26:17.481Z,18.03
2023-05-08T01:29:04.087Z,14.70
2023-05-08T01:31:40.704Z,14.37
2023-05-08T01:34:13.254Z,16.50
2023-05-08T01:36:42.803Z,15.30
2023-05-08T01:39:16.529Z,14.70
2023-05-08T01:41:47.449Z,17.53
2023-05-08T01:44:17.191Z,16.17
2023-05-08T01:46:47.061Z,16.90
2023-05-08T01:49:19.704Z,15.80
2023-05-08T01:51:50.381Z,17.40
2023-05-08T01:54:21.705Z,17.07
2023-05-08T01:56:50.611Z,16.33
2023-05-08T01:59:21.406Z,14.50
2023-05-08T02:01:51.329Z,16.43
2023-05-08T02:04:21.559Z,19.77
2023-05-08T02:06:49.868Z,14.23
2023-05-08T02:09:18.334Z,13.03
2023-05-08T02:11:47.763Z,15.10
2023-05-08T02:14:16.358Z,16.53
2023-05-08T02:16:45.175Z,18.13
2023-05-08T02:19:13.753Z,17.60
2023-05-08T02:21:43.495Z,18.83
2023-05-08T02:24:12.262Z,15.73
2023-05-08T02:26:41.209Z,16.30
2023-05-08T02:29:09.529Z,14.30
2023-05-08T02:31:38.345Z,14.53
2023-05-08T02:34:07.020Z,19.30
2023-05-08T02:36:36.538Z,15.53
2023-05-08T02:39:07.430Z,15.70
2023-05-08T02:41:35.705Z,18.03
2023-05-08T02:44:04.188Z,17.20
2023-05-08T02:46:37.785Z,16.90
2023-05-08T02:49:09.030Z,14.30
2023-05-08T02:51:41.295Z,18.20
2023-05-08T02:54:12.507Z,18.73
2023-05-08T02:56:42.490Z,20.87
2023-05-08T02:59:14.853Z,15.80
2023-05-08T03:01:45.231Z,16.77
2023-05-08T03:04:14.143Z,16.03
2023-05-08T03:06:44.558Z,18.03
2023-05-08T03:09:16.246Z,16.67
2023-05-08T03:11:45.565Z,18.50
2023-05-08T03:14:15.040Z,17.20
2023-05-08T03:16:44.684Z,16.63
2023-05-08T03:19:16.878Z,15.43
2023-05-08T03:21:46.054Z,19.57
2023-05-08T03:24:17.228Z,15.37
2023-05-08T03:26:45.619Z,19.43
2023-05-08T03:29:15.364Z,17.40
2023-05-08T03:31:44.148Z,16.20
2023-05-08T03:34:13.837Z,17.57
2023-05-08T03:36:42.127Z,18.60
2023-05-08T03:39:10.400Z,16.23
2023-05-08T03:41:40.105Z,15.40
2023-05-08T03:44:09.341Z,17.50
2023-05-08T03:46:37.601Z,20.20
2023-05-08T03:49:06.120Z,15.03
2023-05-08T03:51:37.113Z,16.87
2023-05-08T03:54:05.354Z,16.63
2023-05-08T03:56:33.529Z,16.37
2023-05-08T03:59:09.795Z,16.20
2023-05-08T04:01:40.748Z,18.00
2023-05-08T04:04:11.218Z,19.40
2023-05-08T04:06:49.416Z,21.07
2023-05-08T04:09:19.793Z,21.13
2023-05-08T04:11:54.288Z,24.27
2023-05-08T04:14:26.285Z,20.33
2023-05-08T04:16:56.800Z,20.87
2023-05-08T04:19:25.978Z,22.33
2023-05-08T04:21:55.735Z,22.27
2023-05-08T04:24:24.887Z,23.83
2023-05-08T04:26:53.766Z,24.63
2023-05-08T04:29:22.056Z,24.07
2023-05-08T04:31:52.208Z,24.23
2023-05-08T04:34:20.659Z,23.80
2023-05-08T04:36:49.460Z,23.03
2023-05-08T04:39:18.202Z,26.10
2023-05-08T04:41:47.998Z,24.23
2023-05-08T04:44:16.307Z,23.63
2023-05-08T04:46:44.529Z,24.00
2023-05-08T04:49:14.016Z,19.77
2023-05-08T04:51:42.191Z,19.80
2023-05-08T04:54:10.358Z,20.33
2023-05-08T04:56:38.574Z,20.83
2023-05-08T04:59:06.728Z,19.03
2023-05-08T05:01:34.921Z,23.37
2023-05-08T05:04:03.285Z,19.43
2023-05-08T05:06:33.590Z,19.20
2023-05-08T05:09:01.721Z,17.60
2023-05-08T05:11:29.866Z,18.83
2023-05-08T05:13:58.157Z,21.53
2023-05-08T05:16:26.732Z,17.57
2023-05-08T05:18:55.034Z,18.20
2023-05-08T05:21:23.182Z,16.23
2023-05-08T05:23:52.682Z,17.53
2023-05-08T05:26:21.539Z,19.10
2023-05-08T05:28:49.748Z,18.33
2023-05-08T05:31:18.491Z,16.63
2023-05-08T05:33:46.741Z,16.67
2023-05-08T05:36:15.059Z,18.17
2023-05-08T05:38:43.235Z,20.40
2023-05-08T05:41:12.730Z,21.00
2023-05-08T05:43:40.868Z,19.83
2023-05-08T05:46:09.751Z,16.57
2023-05-08T05:48:37.948Z,24.00
2023-05-08T05:51:06.184Z,21.00
2023-05-08T05:53:34.396Z,21.73
2023-05-08T05:56:02.554Z,19.20
2023-05-08T05:58:32.064Z,20.13
2023-05-08T06:01:01.293Z,18.60
2023-05-08T06:03:29.733Z,17.73
2023-05-08T06:05:58.485Z,18.43
2023-05-08T06:08:26.936Z,15.20
2023-05-08T06:10:55.214Z,18.30
2023-05-08T06:13:23.481Z,16.63
2023-05-08T06:15:53.119Z,17.97
2023-05-08T06:18:21.274Z,18.97
2023-05-08T06:20:49.483Z,17.83
2023-05-08T06:23:17.889Z,21.57
2023-05-08T06:25:46.042Z,21.87
2023-05-08T06:28:14.244Z,23.97
2023-05-08T06:30:42.491Z,19.30
2023-05-08T06:33:12.466Z,24.77
2023-05-08T06:35:40.701Z,24.60
2023-05-08T06:38:08.862Z,22.93
2023-05-08T06:40:37.060Z,22.80
2023-05-08T06:43:05.763Z,25.63
2023-05-08T06:45:33.924Z,50.73
2023-05-08T06:48:02.248Z,33.80
2023-05-08T06:50:32.181Z,22.30
2023-05-08T06:53:00.354Z,22.73
2023-05-08T06:55:28.572Z,22.23
2023-05-08T06:57:56.729Z,24.83
2023-05-08T07:00:25.130Z,27.30
2023-05-08T07:02:53.365Z,27.33
2023-05-08T07:05:21.736Z,32.83
2023-05-08T07:07:53.972Z,31.93
2023-05-08T07:10:22.910Z,28.33
2023-05-08T07:12:51.174Z,31.00
2023-05-08T07:15:25.945Z,52.30
2023-05-08T07:17:54.995Z,31.83
2023-05-08T07:20:24.394Z,27.63
2023-05-08T07:22:54.153Z,30.50
2023-05-08T07:25:22.338Z,32.07
2023-05-08T07:27:50.495Z,26.57
2023-05-08T07:30:18.746Z,32.40
2023-05-08T07:32:47.016Z,28.67
2023-05-08T07:35:15.691Z,74.20
2023-05-08T07:37:44.411Z,37.27
2023-05-08T07:40:14.192Z,31.87
2023-05-08T07:42:42.762Z,32.33
2023-05-08T07:45:12.057Z,35.47
2023-05-08T07:47:40.547Z,33.07
2023-05-08T07:50:09.035Z,40.23
2023-05-08T07:52:37.181Z,39.47
2023-05-08T07:55:05.620Z,39.97
2023-05-08T07:57:38.995Z,37.27
2023-05-08T08:00:07.888Z,31.60
2023-05-08T08:02:36.201Z,36.33
2023-05-08T08:05:04.452Z,37.53
2023-05-08T08:07:33.031Z,34.83
2023-05-08T08:10:01.317Z,30.83
2023-05-08T08:12:29.725Z,28.73
2023-05-08T08:14:59.501Z,31.47
2023-05-08T08:17:28.931Z,30.40
2023-05-08T08:19:57.554Z,34.33
2023-05-08T08:22:25.808Z,31.60
2023-05-08T08:24:55.237Z,40.37
2023-05-08T08:27:23.799Z,29.00
2023-05-08T08:29:56.320Z,40.93
2023-05-08T08:32:31.057Z,32.17
2023-05-08T08:34:59.256Z,35.30
2023-05-08T08:37:27.453Z,42.00
2023-05-08T08:39:56.026Z,34.07
2023-05-08T08:42:24.631Z,32.90
2023-05-08T08:44:52.829Z,29.90
2023-05-08T08:47:21.077Z,33.60
2023-05-08T08:49:51.936Z,34.30
2023-05-08T08:52:24.767Z,35.57
2023-05-08T08:54:53.219Z,37.17
2023-05-08T08:57:21.861Z,38.63
2023-05-08T08:59:50.485Z,38.63
2023-05-08T09:02:19.513Z,43.50
2023-05-08T09:04:51.013Z,37.47
2023-05-08T09:07:20.918Z,40.03
2023-05-08T09:09:49.168Z,36.57
2023-05-08T09:12:17.339Z,39.77
2023-05-08T09:14:45.524Z,33.90
2023-05-08T09:17:14.170Z,43.90
2023-05-08T09:19:42.436Z,36.80
2023-05-08T09:22:10.983Z,35.90
2023-05-08T09:24:59.588Z,37.77
2023-05-08T09:27:28.456Z,30.00
2023-05-08T09:30:04.759Z,169.82
2023-05-08T09:32:35.078Z,29.35
2023-05-08T09:35:03.646Z,146.43
2023-05-08T09:37:31.979Z,120.57
2023-05-08T09:40:21.656Z,33.08
2023-05-08T09:42:51.057Z,34.88
2023-05-08T09:45:29.070Z,31.80
2023-05-08T09:47:57.159Z,22.40
2023-05-08T09:50:26.572Z,20.58
2023-05-08T09:52:54.478Z,26.30
2023-05-08T09:55:23.892Z,26.63
2023-05-08T09:57:56.820Z,28.10
2023-05-08T10:00:25.841Z,22.43
2023-05-08T10:02:59.475Z,24.47
2023-05-08T10:05:30.012Z,28.63
2023-05-08T10:07:58.077Z,21.07
2023-05-08T10:10:28.426Z,33.73
2023-05-08T10:12:58.044Z,34.27
2023-05-08T10:15:29.115Z,26.67
2023-05-08T10:18:03.835Z,29.17
2023-05-08T10:20:32.785Z,49.83
2023-05-08T10:23:01.920Z,25.90
2023-05-08T10:25:35.821Z,32.03
2023-05-08T10:28:11.917Z,31.93
2023-05-08T10:30:44.947Z,25.20
2023-05-08T10:33:17.994Z,26.63
2023-05-08T10:35:47.210Z,32.00
2023-05-08T10:38:17.565Z,34.53
2023-05-08T10:40:47.203Z,31.93
2023-05-08T10:43:16.241Z,27.10
2023-05-08T10:45:44.609Z,28.03
2023-05-08T10:48:16.560Z,34.23
2023-05-08T10:50:52.632Z,27.97
2023-05-08T10:53:22.348Z,27.10
2023-05-08T10:55:53.112Z,26.27
2023-05-08T10:58:30.777Z,30.40
2023-05-08T11:01:15.011Z,29.47
2023-05-08T11:03:44.926Z,32.77
2023-05-08T11:06:13.283Z,27.17
2023-05-08T11:08:48.915Z,28.13
2023-05-08T11:11:29.340Z,25.63
2023-05-08T11:14:01.242Z,27.97
2023-05-08T11:16:59.812Z,29.37
2023-05-08T11:19:28.425Z,28.43
2023-05-08T11:22:29.970Z,30.17
2023-05-08T11:24:59.285Z,30.33
2023-05-08T11:27:42.634Z,28.00
2023-05-08T11:30:20.437Z,29.23
2023-05-08T11:32:59.085Z,27.57
2023-05-08T11:35:43.258Z,27.23
2023-05-08T11:38:18.177Z,25.50
2023-05-08T11:40:46.849Z,25.93
2023-05-08T11:43:26.982Z,24.67
2023-05-08T11:45:55.624Z,27.27
2023-05-08T11:48:24.065Z,27.80
2023-05-08T11:50:52.982Z,26.40
2023-05-08T11:53:21.268Z,25.00
2023-05-08T11:55:49.701Z,28.97
2023-05-08T11:58:18.108Z,26.73
2023-05-08T12:00:48.322Z,28.27
2023-05-08T12:03:17.363Z,28.13
2023-05-08T12:05:46.188Z,30.00
2023-05-08T12:08:15.059Z,27.07
2023-05-08T12:10:51.479Z,25.63
2023-05-08T12:13:20.377Z,27.83
2023-05-08T12:15:50.719Z,25.60
2023-05-08T12:18:19.049Z,27.83
2023-05-08T12:20:47.277Z,26.83
2023-05-08T12:23:15.561Z,35.10
2023-05-08T12:25:43.786Z,32.73
2023-05-08T12:28:12.252Z,34.03
2023-05-08T12:30:40.818Z,34.87
2023-05-08T12:33:10.584Z,33.80
2023-05-08T12:35:39.156Z,33.03
2023-05-08T12:38:08.098Z,39.60
2023-05-08T12:40:36.991Z,38.70
2023-05-08T12:43:05.901Z,34.20
2023-05-08T12:45:35.671Z,34.77
2023-05-08T12:48:05.147Z,34.63
2023-05-08T12:50:37.035Z,35.33
2023-05-08T12:53:05.473Z,30.10
2023-05-08T12:55:34.230Z,35.27
2023-05-08T12:58:03.719Z,36.37
2023-05-08T13:00:39.033Z,35.00
2023-05-08T13:03:07.562Z,24.07
2023-05-08T13:05:37.656Z,25.67
2023-05-08T13:08:06.712Z,28.33
2023-05-08T13:10:49.933Z,24.67
2023-05-08T13:13:18.828Z,25.07
2023-05-08T13:15:47.241Z,23.87
2023-05-08T13:18:15.423Z,23.70
2023-05-08T13:20:45.270Z,24.17
2023-05-08T13:23:13.457Z,22.40
2023-05-08T13:25:42.341Z,26.20
2023-05-08T13:28:10.963Z,23.37
2023-05-08T13:30:39.267Z,23.93
2023-05-08T13:33:07.810Z,28.27
2023-05-08T13:35:36.597Z,20.90
2023-05-08T13:38:06.206Z,21.47
2023-05-08T13:40:34.444Z,16.73
2023-05-08T13:43:02.622Z,20.33
2023-05-08T13:45:31.433Z,16.90
2023-05-08T13:47:59.615Z,16.27
2023-05-08T13:50:28.292Z,13.93
2023-05-08T13:52:56.447Z,14.80
2023-05-08T13:55:26.194Z,16.33
2023-05-08T13:57:54.354Z,14.80
2023-05-08T14:00:22.550Z,16.73
2023-05-08T14:02:52.948Z,13.73
2023-05-08T14:05:21.497Z,14.50
2023-05-08T14:07:49.667Z,13.63
2023-05-08T14:10:18.056Z,14.20
2023-05-08T14:12:47.629Z,13.03
2023-05-08T14:15:16.189Z,15.90
2023-05-08T14:17:44.546Z,13.97
2023-05-08T14:20:13.126Z,14.73
2023-05-08T14:22:41.296Z,12.20
2023-05-08T14:25:10.336Z,14.30
2023-05-08T14:27:38.600Z,15.37
2023-05-08T14:30:09.510Z,14.20
2023-05-08T14:32:37.774Z,13.37
2023-05-08T14:35:06.146Z,15.83
2023-05-08T14:37:34.316Z,12.00
2023-05-08T14:40:02.528Z,11.93
2023-05-08T14:42:30.703Z,10.47
2023-05-08T14:44:58.942Z,9.17
2023-05-08T14:47:28.559Z,10.37
2023-05-08T14:49:56.748Z,14.53
2023-05-08T14:52:24.889Z,11.37
2023-05-08T14:54:54.087Z,13.73
2023-05-08T14:57:22.755Z,14.20
2023-05-08T15:02:22.263Z,13.23
2023-05-08T15:04:51.853Z,12.37
2023-05-08T15:07:20.100Z,13.67
2023-05-08T15:09:48.547Z,12.70
2023-05-08T15:12:16.691Z,10.10
2023-05-08T15:14:44.861Z,10.07
2023-05-08T15:17:13.023Z,9.63
2023-05-08T15:19:42.322Z,9.20
2023-05-08T15:22:11.819Z,9.37
2023-05-08T15:24:40.015Z,9.57
2023-05-08T15:27:09.849Z,9.47
2023-05-08T15:29:39.607Z,6.97
2023-05-08T15:32:08.035Z,6.90
2023-05-08T15:34:36.666Z,7.63
2023-05-08T15:37:06.185Z,7.03
2023-05-08T15:39:38.091Z,8.83
2023-05-08T15:42:06.527Z,7.37
2023-05-08T15:44:53.322Z,8.00
2023-05-08T15:47:23.745Z,8.70
2023-05-08T15:49:51.955Z,6.87
2023-05-08T15:52:20.211Z,6.43
2023-05-08T15:54:49.850Z,6.40
2023-05-08T15:57:18.347Z,5.77
2023-05-08T15:59:46.539Z,6.60
2023-05-08T16:02:14.760Z,6.27
2023-05-08T16:04:42.976Z,6.77
2023-05-08T16:07:11.142Z,6.37
2023-05-08T16:09:39.304Z,6.10
2023-05-08T16:12:09.109Z,5.97
2023-05-08T16:14:37.299Z,6.77
2023-05-08T16:17:07.925Z,3.87
2023-05-08T16:19:38.711Z,4.23
2023-05-08T16:22:06.916Z,3.77
2023-05-08T16:24:35.137Z,3.73
2023-05-08T16:27:03.493Z,5.03
2023-05-08T16:29:32.989Z,4.57
2023-05-08T16:32:01.160Z,4.70
2023-05-08T16:34:29.740Z,4.73
2023-05-08T16:36:58.451Z,5.63
2023-05-08T16:39:26.820Z,3.77
2023-05-08T16:41:55.002Z,5.43
2023-05-08T16:44:23.172Z,2.90
2023-05-08T16:46:52.740Z,2.53
2023-05-08T16:49:21.022Z,3.53
2023-05-08T16:51:49.203Z,4.33
2023-05-08T16:54:17.373Z,3.33
2023-05-08T16:56:45.618Z,3.80
2023-05-08T16:59:13.792Z,3.60
2023-05-08T17:01:42.129Z,4.53
2023-05-08T17:04:11.829Z,4.23
2023-05-08T17:06:40.704Z,5.37
2023-05-08T17:09:08.907Z,3.00
2023-05-08T17:11:37.073Z,3.63
2023-05-08T17:14:05.219Z,4.00
2023-05-08T17:16:33.443Z,3.87
2023-05-08T17:19:01.659Z,4.00
2023-05-08T17:21:32.036Z,3.97
2023-05-08T17:24:01.104Z,4.83
2023-05-08T17:26:29.349Z,4.10
2023-05-08T17:28:57.514Z,6.50
2023-05-08T17:31:25.751Z,5.50
2023-05-08T17:33:53.984Z,3.60
2023-05-08T17:36:22.230Z,4.13
2023-05-08T17:38:51.976Z,4.03
2023-05-08T17:41:20.624Z,6.23
2023-05-08T17:43:48.793Z,5.00
2023-05-08T17:46:17.118Z,3.67
2023-05-08T17:48:45.320Z,5.83
2023-05-08T17:51:13.828Z,4.17
2023-05-08T17:53:42.006Z,8.93
2023-05-08T17:56:11.688Z,7.20
2023-05-08T17:58:39.897Z,3.87
2023-05-08T18:01:08.175Z,4.33
2023-05-08T18:03:36.451Z,5.57
2023-05-08T18:06:04.723Z,3.30
2023-05-08T18:08:32.911Z,3.43
2023-05-08T18:11:01.215Z,3.53
2023-05-08T18:13:30.900Z,4.73
2023-05-08T18:15:59.106Z,3.73
2023-05-08T18:18:27.366Z,4.83
2023-05-08T18:20:55.513Z,4.17
2023-05-08T18:23:23.666Z,4.17
2023-05-08T18:25:51.880Z,3.60
2023-05-08T18:28:20.046Z,3.67
2023-05-08T18:30:50.565Z,3.60
2023-05-08T18:33:18.737Z,4.47
2023-05-08T18:35:47.026Z,3.40
2023-05-08T18:38:17.504Z,5.10
2023-05-08T18:40:45.716Z,8.27
2023-05-08T18:43:13.885Z,4.30
2023-05-08T18:45:42.234Z,3.50
2023-05-08T18:48:12.103Z,3.83
2023-05-08T18:50:40.409Z,3.83
2023-05-08T18:53:09.769Z,4.20
2023-05-08T18:55:37.969Z,3.87
2023-05-08T18:58:06.373Z,3.63
2023-05-08T19:00:34.589Z,3.67
2023-05-08T19:03:02.925Z,3.67
2023-05-08T19:05:32.559Z,5.20
2023-05-08T19:08:00.740Z,4.60
2023-05-08T19:10:28.997Z,5.27
2023-05-08T19:12:57.752Z,3.33
2023-05-08T19:15:25.962Z,3.20
2023-05-08T19:17:54.161Z,3.43
2023-05-08T19:20:22.468Z,5.30
2023-05-08T19:22:51.988Z,3.90
2023-05-08T19:25:20.183Z,4.20
2023-05-08T19:27:48.369Z,3.30
2023-05-08T19:30:16.861Z,3.80
2023-05-08T19:32:45.110Z,5.23
2023-05-08T19:35:13.316Z,3.50
2023-05-08T19:37:41.545Z,4.10
2023-05-08T19:40:12.014Z,5.10
2023-05-08T19:42:40.339Z,4.53
2023-05-08T19:45:08.958Z,3.30
2023-05-08T19:47:37.163Z,3.40
2023-05-08T19:50:06.248Z,4.40
2023-05-08T19:52:34.449Z,3.87
2023-05-08T19:55:02.624Z,3.53
2023-05-08T19:57:32.127Z,4.47
2023-05-08T20:00:00.310Z,4.03
2023-05-08T20:02:28.603Z,4.10
2023-05-08T20:07:27.959Z,3.93
2023-05-08T20:09:56.124Z,3.80
2023-05-08T20:12:24.304Z,3.97
2023-05-08T20:14:53.978Z,6.43
2023-05-08T20:17:22.192Z,4.07
2023-05-08T20:19:50.408Z,4.27
2023-05-08T20:22:18.573Z,4.13
2023-05-08T20:24:46.743Z,4.97
2023-05-08T20:27:14.913Z,4.10
2023-05-08T20:29:43.092Z,4.43
2023-05-08T20:32:14.695Z,4.30
2023-05-08T20:34:44.118Z,4.50
2023-05-08T20:37:12.371Z,4.10
2023-05-08T20:39:40.521Z,5.40
2023-05-08T20:42:08.683Z,4.07
2023-05-08T20:44:36.830Z,4.33
2023-05-08T20:47:05.130Z,4.20
2023-05-08T20:49:34.664Z,5.83
2023-05-08T20:52:02.920Z,4.93
2023-05-08T20:54:31.253Z,6.10
2023-05-08T20:56:59.404Z,4.10
2023-05-08T20:59:27.597Z,6.83
2023-05-08T21:01:55.765Z,8.90
2023-05-08T21:04:23.983Z,10.37
2023-05-08T21:06:53.510Z,20.90
2023-05-08T21:09:21.671Z,17.50
2023-05-08T21:11:49.932Z,23.73
2023-05-08T21:14:18.102Z,24.97
2023-05-08T21:16:46.325Z,27.93
2023-05-08T21:19:17.450Z,32.17
2023-05-08T21:21:45.651Z,29.90
2023-05-08T21:24:15.771Z,30.87
2023-05-08T21:26:43.965Z,32.77
2023-05-08T21:29:12.113Z,31.30
2023-05-08T21:31:41.144Z,29.53
2023-05-08T21:34:09.355Z,33.13
2023-05-08T21:36:37.546Z,37.60
2023-05-08T21:39:05.827Z,31.10
2023-05-08T21:41:35.404Z,37.30
2023-05-08T21:44:03.640Z,34.73
2023-05-08T21:46:31.861Z,36.83
2023-05-08T21:49:00.091Z,39.90
2023-05-08T21:51:28.252Z,37.40
2023-05-08T21:53:56.422Z,38.67
2023-05-08T21:56:24.752Z,48.60
2023-05-08T21:58:55.496Z,41.03
2023-05-08T22:01:23.848Z,46.97
2023-05-08T22:03:52.237Z,43.53
2023-05-08T22:06:20.486Z,50.97
2023-05-08T22:08:48.650Z,50.77
2023-05-08T22:11:16.865Z,54.17
2023-05-08T22:13:45.084Z,56.33
2023-05-08T22:16:14.719Z,56.70
2023-05-08T22:18:42.888Z,56.00
2023-05-08T22:21:11.106Z,53.70
2023-05-08T22:23:39.270Z,48.77
2023-05-08T22:26:07.558Z,53.17
2023-05-08T22:28:36.022Z,51.00
2023-05-08T22:31:04.173Z,55.17
2023-05-08T22:33:34.017Z,52.03
2023-05-08T22:36:02.232Z,56.20
2023-05-08T22:38:30.367Z,57.90
2023-05-08T22:41:00.082Z,62.30
2023-05-08T22:43:28.348Z,57.37
2023-05-08T22:45:57.055Z,57.70
2023-05-08T22:48:25.249Z,63.03
2023-05-08T22:50:54.740Z,57.83
2023-05-08T22:53:22.926Z,50.73
2023-05-08T22:55:51.058Z,53.07
2023-05-08T22:58:19.251Z,56.00
2023-05-08T23:00:47.526Z,50.77
2023-05-08T23:03:16.456Z,52.47
2023-05-08T23:05:45.313Z,55.30
2023-05-08T23:08:14.853Z,55.60
2023-05-08T23:10:43.172Z,52.23
2023-05-08T23:13:11.427Z,50.07
2023-05-08T23:15:39.598Z,52.87
2023-05-08T23:18:07.846Z,53.53
2023-05-08T23:20:36.028Z,50.70
2023-05-08T23:23:04.215Z,46.50
2023-05-08T23:25:33.728Z,45.23
2023-05-08T23:28:01.882Z,49.77
2023-05-08T23:30:30.019Z,49.37
2023-05-08T23:32:58.231Z,49.87
2023-05-08T23:35:26.393Z,48.67
2023-05-08T23:37:54.558Z,43.47
2023-05-08T23:40:22.751Z,45.87
2023-05-08T23:42:52.730Z,41.60
2023-05-08T23:45:20.922Z,41.50
2023-05-08T23:47:49.239Z,40.90
2023-05-08T23:50:17.493Z,40.40
2023-05-08T23:52:45.689Z,35.57
2023-05-08T23:55:14.085Z,38.03
2023-05-08T23:57:42.392Z,38.73
